createdAt,value
2018-03-16T00:00:42.623Z,705.21
2018-03-16T00:01:43.093Z,705.19
2018-03-16T00:02:43.565Z,705.17
2018-03-16T00:03:44.039Z,705.15
2018-03-16T00:04:44.509Z,705.16
2018-03-16T00:05:44.983Z,705.20
2018-03-16T00:06:45.454Z,705.20
2018-03-16T00:07:45.926Z,705.22
2018-03-16T00:08:46.398Z,705.17
2018-03-16T00:09:46.870Z,705.13
2018-03-16T00:10:47.344Z,705.08
2018-03-16T00:11:47.814Z,705.08
2018-03-16T00:12:48.287Z,705.10
2018-03-16T00:13:48.758Z,705.10
2018-03-16T00:14:49.234Z,705.15
2018-03-16T00:15:49.704Z,705.15
2018-03-16T00:16:50.177Z,705.08
2018-03-16T00:17:50.648Z,705.20
2018-03-16T00:18:51.124Z,705.20
2018-03-16T00:19:51.591Z,705.20
2018-03-16T00:20:52.067Z,705.22
2018-03-16T00:21:52.537Z,705.23
2018-03-16T00:22:53.010Z,705.22
2018-03-16T00:23:53.486Z,705.22
2018-03-16T00:24:53.954Z,705.26
2018-03-16T00:25:54.426Z,705.27
2018-03-16T00:26:54.897Z,705.25
2018-03-16T00:27:55.371Z,705.21
2018-03-16T00:28:55.841Z,705.27
2018-03-16T00:29:56.314Z,705.29
2018-03-16T00:30:56.788Z,705.21
2018-03-16T00:31:57.258Z,705.26
2018-03-16T00:32:57.732Z,705.25
2018-03-16T00:33:58.202Z,705.29
2018-03-16T00:34:58.675Z,705.34
2018-03-16T00:35:59.148Z,705.32
2018-03-16T00:36:59.619Z,705.31
2018-03-16T00:38:00.094Z,705.35
2018-03-16T00:39:00.565Z,705.24
2018-03-16T00:40:01.036Z,705.34
2018-03-16T00:41:01.513Z,705.29
2018-03-16T00:42:01.981Z,705.32
2018-03-16T00:43:02.454Z,705.27
2018-03-16T00:44:02.929Z,705.38
2018-03-16T00:45:03.397Z,705.30
2018-03-16T00:46:03.870Z,705.25
2018-03-16T00:47:04.343Z,705.25
2018-03-16T00:48:04.818Z,705.28
2018-03-16T00:49:05.286Z,705.28
2018-03-16T00:50:05.760Z,705.25
2018-03-16T00:51:06.231Z,705.35
2018-03-16T00:52:06.702Z,705.34
2018-03-16T00:53:07.174Z,705.31
2018-03-16T00:54:07.648Z,705.27
2018-03-16T00:55:08.120Z,705.20
2018-03-16T00:56:08.592Z,705.19
2018-03-16T00:57:09.064Z,705.30
2018-03-16T00:58:09.537Z,705.29
2018-03-16T00:59:10.008Z,705.29
2018-03-16T01:00:10.480Z,705.33
2018-03-16T01:01:10.954Z,705.38
2018-03-16T01:02:11.425Z,705.41
2018-03-16T01:03:11.899Z,705.35
2018-03-16T01:04:12.370Z,705.27
2018-03-16T01:05:12.841Z,705.33
2018-03-16T01:06:13.315Z,705.31
2018-03-16T01:07:13.804Z,705.29
2018-03-16T01:08:14.258Z,705.23
2018-03-16T01:09:14.728Z,705.17
2018-03-16T01:10:15.202Z,705.20
2018-03-16T01:11:15.675Z,705.21
2018-03-16T01:12:16.145Z,705.20
2018-03-16T01:13:16.619Z,705.15
2018-03-16T01:14:17.090Z,705.15
2018-03-16T01:15:17.563Z,705.13
2018-03-16T01:16:18.033Z,705.14
2018-03-16T01:17:18.507Z,705.12
2018-03-16T01:18:18.980Z,705.13
2018-03-16T01:19:19.451Z,705.19
2018-03-16T01:20:20.264Z,705.15
2018-03-16T01:21:20.397Z,705.14
2018-03-16T01:22:20.867Z,705.12
2018-03-16T01:23:21.340Z,705.10
2018-03-16T01:24:21.814Z,705.08
2018-03-16T01:25:22.285Z,705.10
2018-03-16T01:26:22.757Z,705.10
2018-03-16T01:27:23.229Z,705.05
2018-03-16T01:28:23.699Z,705.07
2018-03-16T01:29:24.170Z,705.00
2018-03-16T01:30:24.650Z,705.01
2018-03-16T01:31:25.115Z,704.98
2018-03-16T01:32:25.590Z,704.95
2018-03-16T01:33:26.059Z,705.01
2018-03-16T01:34:26.539Z,705.00
2018-03-16T01:35:27.007Z,705.05
2018-03-16T01:36:27.476Z,705.05
2018-03-16T01:37:27.948Z,704.96
2018-03-16T01:38:28.420Z,704.94
2018-03-16T01:39:28.892Z,704.94
2018-03-16T01:40:29.364Z,704.99
2018-03-16T01:41:29.841Z,704.99
2018-03-16T01:42:30.307Z,705.03
2018-03-16T01:43:30.779Z,704.98
2018-03-16T01:44:31.250Z,705.03
2018-03-16T01:45:31.725Z,705.08
2018-03-16T01:46:32.196Z,705.12
2018-03-16T01:47:32.670Z,705.06
2018-03-16T01:48:33.139Z,705.08
2018-03-16T01:49:33.612Z,705.13
2018-03-16T01:50:34.087Z,705.09
2018-03-16T01:51:34.557Z,705.12
2018-03-16T01:52:35.027Z,705.18
2018-03-16T01:53:35.499Z,705.14
2018-03-16T01:54:35.972Z,705.10
2018-03-16T01:55:36.445Z,705.11
2018-03-16T01:56:36.917Z,705.13
2018-03-16T01:57:37.388Z,705.16
2018-03-16T01:58:37.862Z,705.14
2018-03-16T01:59:38.332Z,705.14
2018-03-16T02:00:38.806Z,705.13
2018-03-16T02:01:39.278Z,705.17
2018-03-16T02:02:39.748Z,705.15
2018-03-16T02:03:40.222Z,705.19
2018-03-16T02:04:40.694Z,705.15
2018-03-16T02:05:41.164Z,705.13
2018-03-16T02:06:41.636Z,705.16
2018-03-16T02:07:42.108Z,705.17
2018-03-16T02:08:42.579Z,705.18
2018-03-16T02:09:43.050Z,705.11
2018-03-16T02:10:43.523Z,705.14
2018-03-16T02:11:43.998Z,705.16
2018-03-16T02:12:44.467Z,705.10
2018-03-16T02:13:44.938Z,705.11
2018-03-16T02:14:45.411Z,705.09
2018-03-16T02:15:45.884Z,705.15
2018-03-16T02:16:46.404Z,705.12
2018-03-16T02:17:46.828Z,705.14
2018-03-16T02:18:47.300Z,705.09
2018-03-16T02:19:47.772Z,705.15
2018-03-16T02:20:48.243Z,705.19
2018-03-16T02:21:48.715Z,705.18
2018-03-16T02:22:49.188Z,705.12
2018-03-16T02:23:49.659Z,705.19
2018-03-16T02:24:50.130Z,705.19
2018-03-16T02:25:50.602Z,705.08
2018-03-16T02:26:51.075Z,704.96
2018-03-16T02:27:51.547Z,704.93
2018-03-16T02:28:52.017Z,705.01
2018-03-16T02:29:52.490Z,705.06
2018-03-16T02:30:52.963Z,705.10
2018-03-16T02:31:53.435Z,705.12
2018-03-16T02:32:53.907Z,705.06
2018-03-16T02:33:54.379Z,705.06
2018-03-16T02:34:54.852Z,705.11
2018-03-16T02:35:55.322Z,705.08
2018-03-16T02:36:55.794Z,705.10
2018-03-16T02:37:56.269Z,705.12
2018-03-16T02:38:56.739Z,705.06
2018-03-16T02:39:57.211Z,705.05
2018-03-16T02:40:57.684Z,704.97
2018-03-16T02:41:58.154Z,704.96
2018-03-16T02:42:58.627Z,704.96
2018-03-16T02:43:59.099Z,704.99
2018-03-16T02:44:59.574Z,704.96
2018-03-16T02:46:00.044Z,705.02
2018-03-16T02:47:00.514Z,705.02
2018-03-16T02:48:00.987Z,705.02
2018-03-16T02:49:01.465Z,704.97
2018-03-16T02:50:01.933Z,705.03
2018-03-16T02:51:02.402Z,704.99
2018-03-16T02:52:02.873Z,704.94
2018-03-16T02:53:03.387Z,705.01
2018-03-16T02:54:03.819Z,704.99
2018-03-16T02:55:04.290Z,704.99
2018-03-16T02:56:04.764Z,704.99
2018-03-16T02:57:05.284Z,704.99
2018-03-16T02:58:05.708Z,704.96
2018-03-16T02:59:06.179Z,704.98
2018-03-16T03:00:06.655Z,704.94
2018-03-16T03:01:07.124Z,704.95
2018-03-16T03:02:07.650Z,704.89
2018-03-16T03:03:08.071Z,704.92
2018-03-16T03:04:08.546Z,704.93
2018-03-16T03:05:09.010Z,704.93
2018-03-16T03:06:09.486Z,704.89
2018-03-16T03:08:10.431Z,704.96
2018-03-16T03:10:11.374Z,704.91
2018-03-16T03:11:11.847Z,704.87
2018-03-16T03:12:12.319Z,704.94
2018-03-16T03:13:12.786Z,704.85
2018-03-16T03:16:14.208Z,704.97
2018-03-16T03:17:14.679Z,704.92
2018-03-16T03:18:15.150Z,704.94
2018-03-16T03:19:15.624Z,704.87
2018-03-16T03:21:16.567Z,704.89
2018-03-16T03:22:17.039Z,704.88
2018-03-16T03:23:17.512Z,704.84
2018-03-16T03:24:18.188Z,704.89
2018-03-16T03:25:18.455Z,704.93
2018-03-16T03:26:18.927Z,704.85
2018-03-16T03:27:19.394Z,704.90
2018-03-16T03:28:19.872Z,704.85
2018-03-16T03:29:20.343Z,704.94
2018-03-16T03:30:20.815Z,704.99
2018-03-16T03:31:21.287Z,704.97
2018-03-16T03:32:21.844Z,704.85
2018-03-16T03:33:22.235Z,704.96
2018-03-16T03:34:22.704Z,704.91
2018-03-16T03:35:23.176Z,704.93
2018-03-16T03:36:23.648Z,704.94
2018-03-16T03:37:24.119Z,704.92
2018-03-16T03:39:25.063Z,704.97
2018-03-16T03:41:26.006Z,704.89
2018-03-16T03:43:26.952Z,704.96
2018-03-16T03:44:27.423Z,704.97
2018-03-16T03:45:27.894Z,704.99
2018-03-16T03:46:28.365Z,705.02
2018-03-16T03:48:29.309Z,704.91
2018-03-16T03:49:29.782Z,704.92
2018-03-16T03:51:30.728Z,704.98
2018-03-16T03:52:31.193Z,704.97
2018-03-16T03:53:31.669Z,704.91
2018-03-16T03:54:32.141Z,704.92
2018-03-16T03:55:32.614Z,705.03
2018-03-16T03:56:33.085Z,704.90
2018-03-16T03:57:33.556Z,704.93
2018-03-16T03:58:34.029Z,704.87
2018-03-16T03:59:34.499Z,704.90
2018-03-16T04:00:34.973Z,704.94
2018-03-16T04:01:35.445Z,704.92
2018-03-16T04:02:47.296Z,704.88
2018-03-16T04:03:36.387Z,704.93
2018-03-16T04:06:37.805Z,704.98
2018-03-16T04:07:38.278Z,704.90
2018-03-16T04:08:38.750Z,704.98
2018-03-16T04:09:39.218Z,704.92
2018-03-16T04:10:39.691Z,704.96
2018-03-16T04:11:40.163Z,704.92
2018-03-16T04:12:40.629Z,704.91
2018-03-16T04:13:41.108Z,704.94
2018-03-16T04:14:41.579Z,704.88
2018-03-16T04:15:42.052Z,704.92
2018-03-16T04:16:42.524Z,704.86
2018-03-16T04:17:42.990Z,704.90
2018-03-16T04:18:43.467Z,704.85
2018-03-16T04:19:43.940Z,704.86
2018-03-16T04:20:44.409Z,704.87
2018-03-16T04:22:45.354Z,704.81
2018-03-16T04:23:46.162Z,704.91
2018-03-16T04:24:46.300Z,704.79
2018-03-16T04:25:46.768Z,704.90
2018-03-16T04:26:47.242Z,704.76
2018-03-16T04:27:47.712Z,704.83
2018-03-16T04:28:48.187Z,704.64
2018-03-16T04:29:48.652Z,704.78
2018-03-16T04:30:49.128Z,704.79
2018-03-16T04:31:49.601Z,704.78
2018-03-16T04:32:50.122Z,704.63
2018-03-16T04:33:50.542Z,704.75
2018-03-16T04:34:51.011Z,704.87
2018-03-16T04:35:51.489Z,704.78
2018-03-16T04:36:51.960Z,704.80
2018-03-16T04:37:52.427Z,704.83
2018-03-16T04:38:52.903Z,704.78
2018-03-16T04:39:53.376Z,704.71
2018-03-16T04:40:53.847Z,704.70
2018-03-16T04:41:54.318Z,704.77
2018-03-16T04:42:54.790Z,704.82
2018-03-16T04:43:55.262Z,704.80
2018-03-16T04:44:55.737Z,704.82
2018-03-16T04:45:56.206Z,704.79
2018-03-16T04:46:56.679Z,704.77
2018-03-16T04:48:09.346Z,704.76
2018-03-16T04:48:57.620Z,704.72
2018-03-16T04:49:58.093Z,704.63
2018-03-16T04:50:58.565Z,704.70
2018-03-16T04:51:59.036Z,704.74
2018-03-16T04:52:59.509Z,704.64
2018-03-16T04:53:59.980Z,704.71
2018-03-16T04:55:00.454Z,704.82
2018-03-16T04:56:00.920Z,704.77
2018-03-16T04:57:01.396Z,704.71
2018-03-16T04:58:01.918Z,704.65
2018-03-16T04:59:02.339Z,704.84
2018-03-16T05:00:02.813Z,704.76
2018-03-16T05:01:03.284Z,704.76
2018-03-16T05:02:03.750Z,704.74
2018-03-16T05:04:04.698Z,704.80
2018-03-16T05:06:05.642Z,704.73
2018-03-16T05:08:06.585Z,704.90
2018-03-16T05:09:07.052Z,704.80
2018-03-16T05:10:07.527Z,704.75
2018-03-16T05:11:08.001Z,704.51
2018-03-16T05:12:08.471Z,704.86
2018-03-16T05:13:08.943Z,704.86
2018-03-16T05:16:10.357Z,704.95
2018-03-16T05:17:10.830Z,704.96
2018-03-16T05:18:11.297Z,704.92
2018-03-16T05:19:11.772Z,704.95
2018-03-16T05:20:12.246Z,704.83
2018-03-16T05:21:12.714Z,704.79
2018-03-16T05:22:13.187Z,704.76
2018-03-16T05:24:14.127Z,704.87
2018-03-16T05:25:14.600Z,704.91
2018-03-16T05:26:15.073Z,704.89
2018-03-16T05:27:15.544Z,704.82
2018-03-16T05:28:16.065Z,704.89
2018-03-16T05:30:16.958Z,704.82
2018-03-16T05:31:17.429Z,704.92
2018-03-16T05:32:17.901Z,704.81
2018-03-16T05:33:18.368Z,704.91
2018-03-16T05:34:18.844Z,704.86
2018-03-16T05:35:19.317Z,704.81
2018-03-16T05:36:19.788Z,704.83
2018-03-16T05:37:20.254Z,704.90
2018-03-16T05:38:20.729Z,704.80
2018-03-16T05:39:21.203Z,704.88
2018-03-16T05:40:21.673Z,704.90
2018-03-16T05:41:22.141Z,704.95
2018-03-16T05:42:22.622Z,705.00
2018-03-16T05:43:34.422Z,704.97
2018-03-16T05:44:23.560Z,704.92
2018-03-16T05:45:24.027Z,704.82
2018-03-16T05:46:24.502Z,704.76
2018-03-16T05:47:24.973Z,705.01
2018-03-16T05:49:25.917Z,704.85
2018-03-16T05:50:26.389Z,704.87
2018-03-16T05:51:26.859Z,704.86
2018-03-16T05:52:27.331Z,704.99
2018-03-16T05:53:27.864Z,705.05
2018-03-16T05:54:28.269Z,704.95
2018-03-16T05:55:28.746Z,704.84
2018-03-16T05:56:29.216Z,704.99
2018-03-16T05:57:29.892Z,704.89
2018-03-16T05:58:30.163Z,704.95
2018-03-16T05:59:30.629Z,704.86
2018-03-16T06:01:31.569Z,704.92
2018-03-16T06:02:32.045Z,705.03
2018-03-16T06:03:32.566Z,705.00
2018-03-16T06:04:32.987Z,705.10
2018-03-16T06:05:33.459Z,704.98
2018-03-16T06:06:33.932Z,705.03
2018-03-16T06:08:34.923Z,704.99
2018-03-16T06:09:35.344Z,704.66
2018-03-16T06:11:36.288Z,704.69
2018-03-16T06:12:36.757Z,704.76
2018-03-16T06:13:37.282Z,704.84
2018-03-16T06:14:37.694Z,704.79
2018-03-16T06:15:38.172Z,704.90
2018-03-16T06:16:38.644Z,704.63
2018-03-16T06:17:39.109Z,704.79
2018-03-16T06:18:39.585Z,704.65
2018-03-16T06:19:40.079Z,704.89
2018-03-16T06:20:40.527Z,704.55
2018-03-16T06:21:41.000Z,704.80
2018-03-16T06:22:41.471Z,704.52
2018-03-16T06:23:41.991Z,704.64
2018-03-16T06:24:42.415Z,704.65
2018-03-16T06:25:42.885Z,704.69
2018-03-16T06:26:43.352Z,704.74
2018-03-16T06:27:43.827Z,704.64
2018-03-16T06:28:44.349Z,704.62
2018-03-16T06:29:44.771Z,704.73
2018-03-16T06:30:45.236Z,704.53
2018-03-16T06:31:45.711Z,704.69
2018-03-16T06:32:46.182Z,704.70
2018-03-16T06:34:47.123Z,704.69
2018-03-16T06:36:48.070Z,704.76
2018-03-16T06:37:48.543Z,704.73
2018-03-16T06:39:00.449Z,704.47
2018-03-16T06:39:49.486Z,704.77
2018-03-16T06:40:49.958Z,704.67
2018-03-16T06:42:50.899Z,704.85
2018-03-16T06:43:51.386Z,704.79
2018-03-16T06:44:51.902Z,704.49
2018-03-16T06:45:52.318Z,704.62
2018-03-16T06:46:52.788Z,704.68
2018-03-16T06:47:53.262Z,704.80
2018-03-16T06:48:53.779Z,704.86
2018-03-16T06:49:54.205Z,704.81
2018-03-16T06:50:54.679Z,704.61
2018-03-16T06:51:55.153Z,704.74
2018-03-16T06:52:55.618Z,704.79
2018-03-16T06:53:56.094Z,704.66
2018-03-16T06:54:56.566Z,704.95
2018-03-16T06:55:57.050Z,704.90
2018-03-16T06:56:57.511Z,705.14
2018-03-16T06:57:57.987Z,705.13
2018-03-16T06:58:58.456Z,704.97
2018-03-16T06:59:58.930Z,705.11
2018-03-16T07:00:59.404Z,705.15
2018-03-16T07:01:59.875Z,705.02
2018-03-16T07:03:00.347Z,705.18
2018-03-16T07:04:00.822Z,705.12
2018-03-16T07:05:01.290Z,705.05
2018-03-16T07:06:01.772Z,705.15
2018-03-16T07:07:02.242Z,705.09
2018-03-16T07:08:02.716Z,705.11
2018-03-16T07:09:03.242Z,705.19
2018-03-16T07:10:03.664Z,705.22
2018-03-16T07:11:04.137Z,705.22
2018-03-16T07:12:04.642Z,705.28
2018-03-16T07:13:05.083Z,705.18
2018-03-16T07:14:05.608Z,705.27
2018-03-16T07:15:06.031Z,705.38
2018-03-16T07:16:06.501Z,705.28
2018-03-16T07:17:06.983Z,705.17
2018-03-16T07:18:07.456Z,705.38
2018-03-16T07:20:08.397Z,705.42
2018-03-16T07:21:08.875Z,705.37
2018-03-16T07:22:09.352Z,705.38
2018-03-16T07:23:09.829Z,705.41
2018-03-16T07:24:10.300Z,705.22
2018-03-16T07:25:10.777Z,705.31
2018-03-16T07:26:11.249Z,705.32
2018-03-16T07:27:11.724Z,705.29
2018-03-16T07:28:12.199Z,705.23
2018-03-16T07:30:13.150Z,705.16
2018-03-16T07:31:13.624Z,705.30
2018-03-16T07:32:14.098Z,705.16
2018-03-16T07:33:14.574Z,705.24
2018-03-16T07:34:15.044Z,705.20
2018-03-16T07:35:15.524Z,705.32
2018-03-16T07:36:16.000Z,705.29
2018-03-16T07:37:16.482Z,705.25
2018-03-16T07:38:16.951Z,705.21
2018-03-16T07:39:17.426Z,705.35
2018-03-16T07:40:17.903Z,705.39
2018-03-16T07:41:18.378Z,705.32
2018-03-16T07:42:18.849Z,705.48
2018-03-16T07:43:19.323Z,705.51
2018-03-16T07:44:19.854Z,705.38
2018-03-16T07:45:20.278Z,705.62
2018-03-16T07:46:20.754Z,705.40
2018-03-16T07:47:21.229Z,705.43
2018-03-16T07:48:21.710Z,705.48
2018-03-16T07:49:22.179Z,705.49
2018-03-16T07:50:22.653Z,705.37
2018-03-16T07:51:23.127Z,705.47
2018-03-16T07:52:23.600Z,705.62
2018-03-16T07:53:24.075Z,705.53
2018-03-16T07:55:25.023Z,705.64
2018-03-16T07:56:25.490Z,705.37
2018-03-16T07:57:25.968Z,705.56
2018-03-16T07:58:26.444Z,705.51
2018-03-16T07:59:26.914Z,705.46
2018-03-16T08:01:27.859Z,705.57
2018-03-16T08:02:28.332Z,705.60
2018-03-16T08:03:28.802Z,705.54
2018-03-16T08:04:29.276Z,705.58
2018-03-16T08:05:29.747Z,705.65
2018-03-16T08:06:30.214Z,705.69
2018-03-16T08:07:30.691Z,705.77
2018-03-16T08:09:31.632Z,705.78
2018-03-16T08:10:32.154Z,705.89
2018-03-16T08:11:32.573Z,705.93
2018-03-16T08:12:33.046Z,705.93
2018-03-16T08:13:33.517Z,705.87
2018-03-16T08:14:33.988Z,705.87
2018-03-16T08:15:34.458Z,705.98
2018-03-16T08:16:34.930Z,705.92
2018-03-16T08:17:35.404Z,705.90
2018-03-16T08:18:35.875Z,705.92
2018-03-16T08:19:36.344Z,705.93
2018-03-16T08:20:36.818Z,705.98
2018-03-16T08:21:37.289Z,705.98
2018-03-16T08:22:37.761Z,706.01
2018-03-16T08:23:38.231Z,706.08
2018-03-16T08:24:38.704Z,706.07
2018-03-16T08:25:39.176Z,706.08
2018-03-16T08:26:39.649Z,706.09
2018-03-16T08:27:40.124Z,706.14
2018-03-16T08:28:40.591Z,706.11
2018-03-16T08:29:41.067Z,706.13
2018-03-16T08:31:42.011Z,706.05
2018-03-16T08:32:42.478Z,706.14
2018-03-16T08:33:42.958Z,706.12
2018-03-16T08:35:43.901Z,706.07
2018-03-16T08:36:44.370Z,706.16
2018-03-16T08:37:44.847Z,706.02
2018-03-16T08:38:45.660Z,705.92
2018-03-16T08:39:45.795Z,706.03
2018-03-16T08:40:46.318Z,706.02
2018-03-16T08:41:46.741Z,705.98
2018-03-16T08:42:47.214Z,706.05
2018-03-16T08:43:47.688Z,705.93
2018-03-16T08:45:48.688Z,705.95
2018-03-16T08:46:49.110Z,706.09
2018-03-16T08:47:49.586Z,705.98
2018-03-16T08:48:50.060Z,706.02
2018-03-16T08:49:50.533Z,706.16
2018-03-16T08:51:51.481Z,706.03
2018-03-16T08:52:51.955Z,706.14
2018-03-16T08:53:52.434Z,705.99
2018-03-16T08:54:52.907Z,705.88
2018-03-16T08:55:53.375Z,706.03
2018-03-16T08:56:53.855Z,705.96
2018-03-16T08:57:54.331Z,706.12
2018-03-16T08:58:54.807Z,706.06
2018-03-16T08:59:55.283Z,706.05
2018-03-16T09:01:56.231Z,706.15
2018-03-16T09:02:56.723Z,706.18
2018-03-16T09:03:57.182Z,706.11
2018-03-16T09:05:58.128Z,706.24
2018-03-16T09:06:58.612Z,706.11
2018-03-16T09:07:59.083Z,706.17
2018-03-16T09:08:59.559Z,706.07
2018-03-16T09:10:00.034Z,706.11
2018-03-16T09:11:00.510Z,706.06
2018-03-16T09:12:01.326Z,706.02
2018-03-16T09:13:01.459Z,706.09
2018-03-16T09:14:01.930Z,706.16
2018-03-16T09:15:02.412Z,706.10
2018-03-16T09:16:02.933Z,706.09
2018-03-16T09:17:03.354Z,706.17
2018-03-16T09:18:03.831Z,706.08
2018-03-16T09:19:04.305Z,706.00
2018-03-16T09:20:04.777Z,706.10
2018-03-16T09:21:05.249Z,706.11
2018-03-16T09:22:05.726Z,706.08
2018-03-16T09:23:06.199Z,706.22
2018-03-16T09:24:06.671Z,706.18
2018-03-16T09:25:07.143Z,706.17
2018-03-16T09:26:07.665Z,706.11
2018-03-16T09:27:08.081Z,706.20
2018-03-16T09:28:08.558Z,706.11
2018-03-16T09:29:09.031Z,706.18
2018-03-16T09:30:09.504Z,706.16
2018-03-16T09:31:09.974Z,706.23
2018-03-16T09:32:10.445Z,706.22
2018-03-16T09:33:10.916Z,706.22
2018-03-16T09:34:11.388Z,706.19
2018-03-16T09:35:11.859Z,706.16
2018-03-16T09:36:12.327Z,706.18
2018-03-16T09:37:12.802Z,706.22
2018-03-16T09:38:13.272Z,706.30
2018-03-16T09:39:13.750Z,706.24
2018-03-16T09:40:14.243Z,706.24
2018-03-16T09:41:14.739Z,706.19
2018-03-16T09:42:15.160Z,706.25
2018-03-16T09:43:15.633Z,706.23
2018-03-16T09:44:16.102Z,706.21
2018-03-16T09:45:16.569Z,706.22
2018-03-16T09:46:17.045Z,706.19
2018-03-16T09:47:17.519Z,706.22
2018-03-16T09:48:17.989Z,706.28
2018-03-16T09:49:18.460Z,706.18
2018-03-16T09:50:18.936Z,706.07
2018-03-16T09:51:19.406Z,706.15
2018-03-16T09:52:19.881Z,706.04
2018-03-16T09:53:20.346Z,706.24
2018-03-16T09:54:20.826Z,706.31
2018-03-16T09:55:21.637Z,706.07
2018-03-16T09:58:22.714Z,706.20
2018-03-16T09:59:23.189Z,706.23
2018-03-16T10:00:23.659Z,706.30
2018-03-16T10:01:24.135Z,706.25
2018-03-16T10:02:24.609Z,706.25
2018-03-16T10:03:25.082Z,706.34
2018-03-16T10:04:25.548Z,706.20
2018-03-16T10:05:26.028Z,706.18
2018-03-16T10:06:26.506Z,706.26
2018-03-16T10:09:27.975Z,706.21
2018-03-16T10:10:28.400Z,706.24
2018-03-16T10:11:28.873Z,706.23
2018-03-16T10:12:29.346Z,706.23
2018-03-16T10:13:29.817Z,706.11
2018-03-16T10:14:30.297Z,706.12
2018-03-16T10:15:30.776Z,706.28
2018-03-16T10:16:31.249Z,706.23
2018-03-16T10:17:31.717Z,706.34
2018-03-16T10:18:32.196Z,706.28
2018-03-16T10:19:32.673Z,706.33
2018-03-16T10:20:33.146Z,706.31
2018-03-16T10:21:33.621Z,706.21
2018-03-16T10:22:34.099Z,706.05
2018-03-16T10:23:34.574Z,706.32
2018-03-16T10:24:35.097Z,706.37
2018-03-16T10:27:36.480Z,706.31
2018-03-16T10:28:36.948Z,706.37
2018-03-16T10:29:49.657Z,706.45
2018-03-16T10:30:37.895Z,706.34
2018-03-16T10:31:38.375Z,706.31
2018-03-16T10:32:38.846Z,706.24
2018-03-16T10:33:39.324Z,706.37
2018-03-16T10:34:39.849Z,706.37
2018-03-16T10:35:40.272Z,706.35
2018-03-16T10:36:40.746Z,706.44
2018-03-16T10:37:41.220Z,706.42
2018-03-16T10:38:41.697Z,706.36
2018-03-16T10:39:53.652Z,706.27
2018-03-16T10:40:42.641Z,706.35
2018-03-16T10:41:43.121Z,706.33
2018-03-16T10:42:43.587Z,706.39
2018-03-16T10:43:44.064Z,706.37
2018-03-16T10:45:45.002Z,706.32
2018-03-16T10:46:45.476Z,706.32
2018-03-16T10:47:45.950Z,706.27
2018-03-16T10:48:46.421Z,706.23
2018-03-16T10:49:47.039Z,706.40
2018-03-16T10:50:47.366Z,706.45
2018-03-16T10:51:47.835Z,706.44
2018-03-16T10:52:48.309Z,706.31
2018-03-16T10:53:48.785Z,706.40
2018-03-16T10:54:49.253Z,706.34
2018-03-16T10:55:49.725Z,706.43
2018-03-16T10:56:50.195Z,706.33
2018-03-16T10:57:50.663Z,706.22
2018-03-16T10:58:51.135Z,706.22
2018-03-16T10:59:51.606Z,706.29
2018-03-16T11:00:52.073Z,706.43
2018-03-16T11:01:52.573Z,706.38
2018-03-16T11:02:53.021Z,706.36
2018-03-16T11:04:54.017Z,706.49
2018-03-16T11:05:54.779Z,706.45
2018-03-16T11:06:54.906Z,706.44
2018-03-16T11:07:55.379Z,706.42
2018-03-16T11:09:56.326Z,706.49
2018-03-16T11:11:57.279Z,706.42
2018-03-16T11:12:57.738Z,706.43
2018-03-16T11:13:58.225Z,706.45
2018-03-16T11:14:58.729Z,706.39
2018-03-16T11:15:59.157Z,706.27
2018-03-16T11:16:59.630Z,706.47
2018-03-16T11:19:00.577Z,706.49
2018-03-16T11:20:01.103Z,706.36
2018-03-16T11:21:01.520Z,706.43
2018-03-16T11:22:01.995Z,706.39
2018-03-16T11:23:02.470Z,706.42
2018-03-16T11:24:02.939Z,706.45
2018-03-16T11:25:03.468Z,706.49
2018-03-16T11:26:03.891Z,706.41
2018-03-16T11:27:04.367Z,706.44
2018-03-16T11:28:04.839Z,706.54
2018-03-16T11:29:05.313Z,706.54
2018-03-16T11:30:05.787Z,706.47
2018-03-16T11:31:06.264Z,706.47
2018-03-16T11:33:07.211Z,706.63
2018-03-16T11:34:08.027Z,706.57
2018-03-16T11:35:08.212Z,706.54
2018-03-16T11:37:09.112Z,706.56
2018-03-16T11:38:09.586Z,706.56
2018-03-16T11:39:10.062Z,706.56
2018-03-16T11:41:11.011Z,706.62
2018-03-16T11:42:11.491Z,706.70
2018-03-16T11:43:11.964Z,706.59
2018-03-16T11:44:12.434Z,706.58
2018-03-16T11:45:12.965Z,706.63
2018-03-16T11:46:13.730Z,706.57
2018-03-16T11:47:13.864Z,706.51
2018-03-16T11:48:14.334Z,706.59
2018-03-16T11:49:14.816Z,706.66
2018-03-16T11:50:15.290Z,706.56
2018-03-16T11:51:15.762Z,706.65
2018-03-16T11:52:16.237Z,706.45
2018-03-16T11:53:16.709Z,706.46
2018-03-16T11:54:17.181Z,706.51
2018-03-16T11:55:17.709Z,706.51
2018-03-16T11:56:18.132Z,706.52
2018-03-16T11:58:19.075Z,706.60
2018-03-16T11:59:19.556Z,706.64
2018-03-16T12:00:20.025Z,706.60
2018-03-16T12:01:20.497Z,706.65
2018-03-16T12:02:20.971Z,706.64
2018-03-16T12:03:21.443Z,706.55
2018-03-16T12:04:21.914Z,706.51
2018-03-16T12:05:22.385Z,706.58
2018-03-16T12:06:22.861Z,706.54
2018-03-16T12:07:23.332Z,706.59
2018-03-16T12:08:23.802Z,706.54
2018-03-16T12:09:24.266Z,706.55
2018-03-16T12:10:36.735Z,706.44
2018-03-16T12:12:25.688Z,706.66
2018-03-16T12:14:26.628Z,706.59
2018-03-16T12:15:27.101Z,706.66
2018-03-16T12:16:27.570Z,706.65
2018-03-16T12:17:28.044Z,706.64
2018-03-16T12:18:28.513Z,706.66
2018-03-16T12:19:28.979Z,706.64
2018-03-16T12:20:29.456Z,706.47
2018-03-16T12:22:30.393Z,706.65
2018-03-16T12:23:30.870Z,706.63
2018-03-16T12:26:32.285Z,706.55
2018-03-16T12:27:32.753Z,706.64
2018-03-16T12:28:49.475Z,706.74
2018-03-16T12:29:33.702Z,706.76
2018-03-16T12:30:34.173Z,706.72
2018-03-16T12:32:35.120Z,706.77
2018-03-16T12:33:35.591Z,706.67
2018-03-16T12:34:36.064Z,706.72
2018-03-16T12:35:36.537Z,706.66
2018-03-16T12:36:37.061Z,706.66
2018-03-16T12:37:37.483Z,706.73
2018-03-16T12:38:37.950Z,706.60
2018-03-16T12:40:38.898Z,706.56
2018-03-16T12:42:39.850Z,706.64
2018-03-16T12:43:40.323Z,706.58
2018-03-16T12:44:40.796Z,706.58
2018-03-16T12:45:41.270Z,706.58
2018-03-16T12:46:41.744Z,706.63
2018-03-16T12:47:42.213Z,706.73
2018-03-16T12:48:42.688Z,706.65
2018-03-16T12:49:43.167Z,706.68
2018-03-16T12:50:43.641Z,706.66
2018-03-16T12:51:44.116Z,706.58
2018-03-16T12:52:44.590Z,706.57
2018-03-16T12:53:45.064Z,706.57
2018-03-16T12:54:45.539Z,706.63
2018-03-16T12:55:46.216Z,706.66
2018-03-16T12:56:46.534Z,706.66
2018-03-16T12:57:46.966Z,706.60
2018-03-16T12:58:47.438Z,706.63
2018-03-16T12:59:47.913Z,706.66
2018-03-16T13:00:48.385Z,706.55
2018-03-16T13:01:48.916Z,706.66
2018-03-16T13:02:49.340Z,706.58
2018-03-16T13:03:49.814Z,706.60
2018-03-16T13:04:50.289Z,706.61
2018-03-16T13:05:50.764Z,706.61
2018-03-16T13:06:51.237Z,706.58
2018-03-16T13:07:51.711Z,706.66
2018-03-16T13:08:52.187Z,706.66
2018-03-16T13:09:52.662Z,706.61
2018-03-16T13:11:53.661Z,706.59
2018-03-16T13:12:54.086Z,706.61
2018-03-16T13:14:55.030Z,706.68
2018-03-16T13:15:55.503Z,706.64
2018-03-16T13:17:07.825Z,706.72
2018-03-16T13:18:56.922Z,706.57
2018-03-16T13:19:57.396Z,706.69
2018-03-16T13:20:57.868Z,706.71
2018-03-16T13:21:58.339Z,706.65
2018-03-16T13:22:58.807Z,706.58
2018-03-16T13:23:59.284Z,706.59
2018-03-16T13:24:59.756Z,706.64
2018-03-16T13:26:00.232Z,706.64
2018-03-16T13:28:01.169Z,706.75
2018-03-16T13:29:01.641Z,706.72
2018-03-16T13:30:02.111Z,706.75
2018-03-16T13:31:02.578Z,706.79
2018-03-16T13:32:03.052Z,706.78
2018-03-16T13:33:14.806Z,706.82
2018-03-16T13:35:04.462Z,706.76
2018-03-16T13:36:04.940Z,706.80
2018-03-16T13:37:05.408Z,706.71
2018-03-16T13:38:05.932Z,706.74
2018-03-16T13:39:06.353Z,706.77
2018-03-16T13:40:06.824Z,706.77
2018-03-16T13:41:07.294Z,706.85